createdAt,value
2019-02-25T00:02:24.362Z,8.97
2019-02-25T00:05:47.601Z,9.63
2019-02-25T00:09:11.037Z,8.60
2019-02-25T00:12:34.332Z,9.23
2019-02-25T00:15:57.506Z,8.70
2019-02-25T00:19:20.654Z,9.07
2019-02-25T00:22:43.822Z,9.73
2019-02-25T00:26:06.884Z,9.13
2019-02-25T00:29:29.969Z,8.63
2019-02-25T00:32:53.209Z,9.17
2019-02-25T00:36:16.565Z,8.73
2019-02-25T00:39:39.654Z,9.57
2019-02-25T00:43:02.823Z,9.93
2019-02-25T00:46:25.952Z,9.47
2019-02-25T00:49:49.055Z,9.37
2019-02-25T00:53:12.365Z,9.30
2019-02-25T00:56:35.496Z,9.80
2019-02-25T00:59:58.900Z,8.90
2019-02-25T01:03:22.034Z,9.20
2019-02-25T01:06:45.114Z,8.37
2019-02-25T01:10:08.784Z,9.20
2019-02-25T01:13:31.862Z,9.03
2019-02-25T01:16:54.988Z,9.53
2019-02-25T01:20:18.132Z,9.73
2019-02-25T01:23:41.187Z,10.57
2019-02-25T01:27:04.371Z,9.47
2019-02-25T01:30:27.468Z,9.40
2019-02-25T01:33:50.591Z,8.83
2019-02-25T01:37:13.693Z,8.70
2019-02-25T01:40:36.793Z,9.23
2019-02-25T01:43:59.917Z,9.97
2019-02-25T01:47:23.609Z,9.00
2019-02-25T01:50:46.703Z,8.60
2019-02-25T01:54:09.824Z,8.47
2019-02-25T01:57:32.947Z,9.30
2019-02-25T02:00:56.049Z,8.67
2019-02-25T02:04:19.387Z,9.63
2019-02-25T02:07:42.482Z,9.23
2019-02-25T02:11:05.571Z,9.70
2019-02-25T02:14:28.613Z,10.17
2019-02-25T02:17:51.976Z,9.13
2019-02-25T02:21:15.081Z,10.00
2019-02-25T02:24:38.186Z,10.10
2019-02-25T02:28:01.263Z,9.27
2019-02-25T02:31:24.351Z,8.60
2019-02-25T02:34:47.457Z,9.03
2019-02-25T02:38:11.202Z,9.53
2019-02-25T02:42:28.405Z,10.17
2019-02-25T02:45:57.844Z,9.10
2019-02-25T02:49:20.937Z,9.57
2019-02-25T02:52:44.050Z,8.90
2019-02-25T02:56:06.949Z,8.70
2019-02-25T02:59:30.066Z,9.70
2019-02-25T03:02:53.169Z,9.50
2019-02-25T03:06:16.317Z,9.63
2019-02-25T03:09:39.652Z,9.67
2019-02-25T03:13:02.759Z,8.70
2019-02-25T03:16:25.857Z,9.13
2019-02-25T03:19:49.069Z,9.57
2019-02-25T03:23:12.137Z,9.67
2019-02-25T03:26:35.329Z,9.30
2019-02-25T03:29:58.391Z,9.43
2019-02-25T03:33:21.493Z,8.63
2019-02-25T03:36:44.612Z,8.40
2019-02-25T03:40:10.194Z,8.53
2019-02-25T03:43:33.290Z,9.33
2019-02-25T03:46:56.343Z,8.70
2019-02-25T03:50:19.478Z,8.80
2019-02-25T03:53:42.552Z,9.17
2019-02-25T03:57:05.656Z,9.70
2019-02-25T04:00:28.772Z,10.00
2019-02-25T04:03:51.890Z,10.07
2019-02-25T04:07:14.984Z,10.43
2019-02-25T04:10:38.343Z,10.20
2019-02-25T04:14:01.534Z,9.83
2019-02-25T04:17:24.630Z,11.03
2019-02-25T04:20:47.993Z,11.53
2019-02-25T04:24:11.087Z,10.73
2019-02-25T04:27:34.201Z,9.80
2019-02-25T04:30:57.279Z,10.57
2019-02-25T04:34:20.406Z,10.77
2019-02-25T04:37:43.539Z,9.93
2019-02-25T04:41:06.733Z,9.37
2019-02-25T04:44:29.837Z,9.73
2019-02-25T04:47:53.112Z,9.37
2019-02-25T04:51:16.217Z,9.53
2019-02-25T04:54:39.591Z,10.67
2019-02-25T04:58:02.739Z,10.70
2019-02-25T05:01:25.885Z,10.17
2019-02-25T05:04:49.006Z,10.30
2019-02-25T05:08:12.115Z,10.50
2019-02-25T05:11:36.849Z,9.73
2019-02-25T05:15:00.265Z,11.40
2019-02-25T05:18:23.533Z,10.17
2019-02-25T05:21:46.693Z,9.43
2019-02-25T05:25:10.025Z,9.80
2019-02-25T05:28:33.143Z,9.33
2019-02-25T05:31:56.233Z,10.07
2019-02-25T05:35:19.300Z,9.50
2019-02-25T05:38:42.621Z,10.20
2019-02-25T05:42:05.704Z,10.37
2019-02-25T05:45:28.832Z,9.97
2019-02-25T05:48:53.806Z,10.07
2019-02-25T05:52:17.255Z,9.73
2019-02-25T05:55:40.553Z,11.23
2019-02-25T05:59:03.741Z,11.47
2019-02-25T06:02:26.988Z,9.90
2019-02-25T06:05:50.202Z,9.80
2019-02-25T06:09:17.303Z,9.77
2019-02-25T06:12:40.418Z,10.13
2019-02-25T06:16:03.565Z,10.43
2019-02-25T06:19:27.683Z,8.33
2019-02-25T06:22:51.017Z,9.57
2019-02-25T06:26:20.037Z,9.73
2019-02-25T06:29:43.185Z,9.83
2019-02-25T06:33:06.337Z,9.33
2019-02-25T06:36:29.515Z,9.00
2019-02-25T06:39:52.685Z,9.50
2019-02-25T06:43:15.781Z,9.27
2019-02-25T06:46:38.913Z,8.80
2019-02-25T06:50:02.184Z,9.13
2019-02-25T06:53:25.543Z,9.17
2019-02-25T06:56:48.759Z,8.83
2019-02-25T07:00:16.698Z,8.37
2019-02-25T07:04:23.899Z,10.20
2019-02-25T07:08:09.295Z,9.60
2019-02-25T07:11:55.082Z,8.77
2019-02-25T07:15:35.158Z,8.77
2019-02-25T07:19:29.971Z,9.67
2019-02-25T07:23:15.551Z,9.27
2019-02-25T07:26:45.798Z,10.67
2019-02-25T07:30:31.704Z,8.90
2019-02-25T07:34:17.366Z,10.50
2019-02-25T07:38:00.904Z,9.07
2019-02-25T07:41:58.751Z,8.27
2019-02-25T07:45:37.625Z,11.00
2019-02-25T07:49:23.175Z,10.93
2019-02-25T07:53:05.921Z,10.83
2019-02-25T07:56:42.664Z,9.70
2019-02-25T08:00:18.735Z,10.40
2019-02-25T08:04:07.223Z,11.20
2019-02-25T08:07:36.118Z,10.87
2019-02-25T08:11:08.407Z,8.77
2019-02-25T08:14:39.879Z,10.03
2019-02-25T08:18:07.980Z,9.70
2019-02-25T08:21:48.864Z,9.30
2019-02-25T08:25:29.912Z,8.03
2019-02-25T08:29:27.328Z,8.30
2019-02-25T08:33:10.968Z,7.30
2019-02-25T08:37:44.037Z,9.33
2019-02-25T08:41:36.303Z,7.47
2019-02-25T08:45:20.492Z,7.97
2019-02-25T08:48:48.704Z,6.37
2019-02-25T08:52:11.868Z,6.87
2019-02-25T08:55:34.973Z,6.13
2019-02-25T08:58:58.365Z,5.97
2019-02-25T09:02:22.414Z,5.93
2019-02-25T09:05:45.513Z,6.67
2019-02-25T09:09:09.647Z,6.77
2019-02-25T09:12:32.846Z,6.17
2019-02-25T09:15:56.225Z,6.50
2019-02-25T09:19:19.515Z,6.70
2019-02-25T09:22:42.614Z,5.87
2019-02-25T09:26:05.728Z,6.23
2019-02-25T09:29:29.241Z,5.90
2019-02-25T09:32:52.526Z,5.73
2019-02-25T09:36:15.768Z,5.77
2019-02-25T09:39:39.411Z,5.00
2019-02-25T09:43:04.463Z,5.20
2019-02-25T09:46:27.610Z,5.62
2019-02-25T09:49:51.126Z,4.85
2019-02-25T09:53:14.309Z,4.85
2019-02-25T09:56:37.491Z,5.67
2019-02-25T10:00:00.698Z,4.65
2019-02-25T10:03:24.037Z,5.42
2019-02-25T10:06:47.316Z,5.10
2019-02-25T10:10:12.643Z,5.45
2019-02-25T10:13:35.940Z,5.90
2019-02-25T10:16:59.181Z,5.47
2019-02-25T10:20:22.631Z,5.40
2019-02-25T10:23:46.772Z,6.62
2019-02-25T10:27:09.939Z,7.00
2019-02-25T10:30:33.205Z,6.12
2019-02-25T10:33:56.410Z,6.20
2019-02-25T10:37:19.849Z,6.10
2019-02-25T10:40:44.950Z,6.17
2019-02-25T10:44:08.594Z,5.55
2019-02-25T10:47:32.020Z,5.05
2019-02-25T10:50:56.315Z,4.78
2019-02-25T10:54:21.248Z,6.50
2019-02-25T10:57:45.285Z,4.75
2019-02-25T11:01:13.486Z,4.55
2019-02-25T11:04:33.843Z,4.40
2019-02-25T11:07:57.313Z,4.87
2019-02-25T11:11:25.429Z,4.90
2019-02-25T11:14:49.631Z,4.47
2019-02-25T11:18:12.814Z,4.70
2019-02-25T11:21:37.611Z,4.25
2019-02-25T11:25:01.737Z,4.75
2019-02-25T11:28:26.033Z,4.22
2019-02-25T11:31:51.443Z,4.20
2019-02-25T11:35:14.931Z,6.65
2019-02-25T11:38:38.298Z,4.92
2019-02-25T11:42:03.313Z,4.35
2019-02-25T11:45:26.910Z,4.42
2019-02-25T11:48:49.995Z,4.53
2019-02-25T11:52:13.092Z,5.53
2019-02-25T11:55:36.183Z,5.35
2019-02-25T11:58:59.322Z,4.35
2019-02-25T12:02:25.588Z,4.92
2019-02-25T12:05:47.649Z,4.83
2019-02-25T12:09:10.733Z,5.28
2019-02-25T12:12:34.307Z,4.67
2019-02-25T12:15:57.415Z,5.28
2019-02-25T12:19:20.680Z,4.28
2019-02-25T12:22:44.147Z,4.95
2019-02-25T12:26:07.436Z,4.65
2019-02-25T12:29:31.061Z,4.53
2019-02-25T12:32:54.288Z,4.30
2019-02-25T12:36:18.390Z,3.37
2019-02-25T12:39:41.585Z,4.83
2019-02-25T12:43:04.700Z,4.05
2019-02-25T12:46:27.785Z,4.78
2019-02-25T12:49:51.944Z,3.98
2019-02-25T12:53:15.064Z,3.80
2019-02-25T12:56:38.590Z,3.95
2019-02-25T13:00:07.306Z,4.17
2019-02-25T13:03:30.964Z,6.58
2019-02-25T13:06:56.854Z,6.25
2019-02-25T13:10:20.268Z,5.55
2019-02-25T13:13:43.578Z,4.35
2019-02-25T13:17:06.786Z,3.17
2019-02-25T13:20:29.989Z,3.62
2019-02-25T13:23:54.708Z,3.35
2019-02-25T13:27:21.823Z,3.42
2019-02-25T13:30:44.891Z,3.45
2019-02-25T13:34:08.226Z,3.80
2019-02-25T13:37:31.459Z,3.05
2019-02-25T13:40:54.928Z,3.30
2019-02-25T13:44:18.150Z,3.40
2019-02-25T13:47:41.833Z,3.72
2019-02-25T13:51:05.017Z,3.80
2019-02-25T13:54:29.598Z,3.72
2019-02-25T13:57:53.834Z,4.03
2019-02-25T14:01:17.644Z,4.12
2019-02-25T14:04:41.350Z,3.98
2019-02-25T14:08:04.637Z,3.92
2019-02-25T14:11:27.903Z,4.05
2019-02-25T14:14:51.099Z,3.85
2019-02-25T14:18:14.200Z,3.83
2019-02-25T14:21:37.749Z,4.08
2019-02-25T14:25:03.630Z,3.98
2019-02-25T14:28:25.986Z,3.83
2019-02-25T14:31:51.089Z,4.12
2019-02-25T14:35:15.819Z,3.98
2019-02-25T14:38:39.039Z,3.52
2019-02-25T14:42:06.833Z,3.45
2019-02-25T14:45:32.142Z,4.05
2019-02-25T14:48:55.864Z,4.12
2019-02-25T14:52:19.836Z,3.98
2019-02-25T14:55:47.184Z,3.80
2019-02-25T14:59:14.545Z,4.67
2019-02-25T15:02:35.125Z,4.60
2019-02-25T15:05:59.254Z,5.35
2019-02-25T15:09:22.900Z,4.67
2019-02-25T15:12:45.975Z,4.47
2019-02-25T15:16:10.163Z,4.40
2019-02-25T15:19:34.414Z,5.35
2019-02-25T15:22:58.579Z,5.72
2019-02-25T15:26:23.553Z,6.45
2019-02-25T15:29:48.502Z,5.72
2019-02-25T15:33:12.301Z,5.67
2019-02-25T15:36:35.497Z,5.53
2019-02-25T15:39:58.601Z,5.17
2019-02-25T15:43:23.230Z,5.40
2019-02-25T15:46:46.790Z,5.25
2019-02-25T15:50:12.314Z,5.00
2019-02-25T15:53:35.537Z,5.75
2019-02-25T15:56:58.922Z,5.87
2019-02-25T16:00:25.415Z,6.05
2019-02-25T16:03:49.669Z,5.87
2019-02-25T16:07:13.107Z,6.30
2019-02-25T16:10:36.574Z,6.42
2019-02-25T16:14:01.865Z,5.62
2019-02-25T16:17:26.122Z,6.33
2019-02-25T16:20:49.316Z,5.90
2019-02-25T16:24:14.188Z,6.25
2019-02-25T16:27:37.745Z,5.53
2019-02-25T16:31:03.842Z,6.08
2019-02-25T16:34:27.184Z,6.92
2019-02-25T16:37:50.743Z,6.55
2019-02-25T16:41:16.080Z,6.33
2019-02-25T16:44:39.421Z,6.47
2019-02-25T16:48:02.812Z,6.53
2019-02-25T16:51:27.607Z,6.70
2019-02-25T16:54:51.274Z,7.12
2019-02-25T16:58:14.523Z,7.42
2019-02-25T17:01:39.890Z,6.87
2019-02-25T17:05:02.794Z,7.60
2019-02-25T17:08:28.120Z,7.00
2019-02-25T17:11:51.828Z,7.70
2019-02-25T17:15:16.574Z,6.53
2019-02-25T17:18:39.867Z,7.10
2019-02-25T17:22:05.134Z,6.50
2019-02-25T17:25:31.358Z,6.15
2019-02-25T17:28:53.743Z,6.42
2019-02-25T17:32:19.378Z,6.65
2019-02-25T17:35:44.803Z,6.83
2019-02-25T17:39:12.986Z,7.28
2019-02-25T17:42:37.024Z,6.28
2019-02-25T17:46:03.808Z,6.60
2019-02-25T17:49:26.518Z,7.60
2019-02-25T17:52:50.127Z,8.45
2019-02-25T17:56:13.380Z,7.95
2019-02-25T17:59:36.511Z,8.55
2019-02-25T18:03:01.493Z,8.63
2019-02-25T18:06:29.462Z,8.33
2019-02-25T18:09:50.181Z,10.30
2019-02-25T18:13:13.660Z,10.08
2019-02-25T18:16:39.117Z,9.78
2019-02-25T18:20:02.855Z,9.20
2019-02-25T18:23:26.151Z,8.03
2019-02-25T18:26:49.369Z,9.20
2019-02-25T18:30:13.816Z,7.83
2019-02-25T18:33:37.770Z,8.73
2019-02-25T18:37:01.219Z,9.20
2019-02-25T18:40:25.011Z,7.72
2019-02-25T18:43:49.418Z,8.10
2019-02-25T18:47:16.363Z,8.78
2019-02-25T18:50:40.359Z,8.90
2019-02-25T18:54:03.912Z,7.60
2019-02-25T18:57:28.993Z,8.43
2019-02-25T19:00:52.357Z,8.48
2019-02-25T19:04:17.133Z,7.90
2019-02-25T19:07:40.812Z,8.38
2019-02-25T19:11:04.262Z,7.60
2019-02-25T19:14:28.843Z,8.20
2019-02-25T19:17:54.394Z,9.03
2019-02-25T19:21:17.982Z,9.63
2019-02-25T19:24:42.276Z,9.13
2019-02-25T19:28:06.650Z,9.37
2019-02-25T19:31:30.409Z,9.80
2019-02-25T19:34:55.992Z,10.13
2019-02-25T19:38:18.857Z,11.13
2019-02-25T19:41:45.087Z,11.67
2019-02-25T19:45:10.108Z,13.03
2019-02-25T19:48:33.653Z,11.57
2019-02-25T19:51:56.829Z,12.17
2019-02-25T19:55:21.047Z,12.23
2019-02-25T19:58:45.273Z,11.67
2019-02-25T20:02:11.172Z,10.27
2019-02-25T20:05:38.838Z,11.63
2019-02-25T20:09:00.501Z,8.90
2019-02-25T20:12:23.836Z,9.47
2019-02-25T20:15:48.993Z,9.03
2019-02-25T20:19:13.506Z,10.57
2019-02-25T20:22:38.614Z,9.60
2019-02-25T20:26:02.197Z,10.43
2019-02-25T20:29:26.181Z,10.73
2019-02-25T20:32:49.837Z,10.33
2019-02-25T20:36:17.163Z,10.10
2019-02-25T20:39:44.701Z,10.50
2019-02-25T20:43:08.541Z,10.47
2019-02-25T20:46:35.420Z,9.43
2019-02-25T20:50:03.295Z,9.53
2019-02-25T20:53:29.440Z,10.13
2019-02-25T20:56:55.457Z,9.33
2019-02-25T21:00:20.025Z,9.57
2019-02-25T21:03:45.830Z,9.87
2019-02-25T21:07:11.495Z,10.70
2019-02-25T21:10:35.655Z,9.63
2019-02-25T21:13:59.701Z,10.97
2019-02-25T21:17:23.103Z,10.53
2019-02-25T21:20:51.411Z,12.20
2019-02-25T21:24:15.273Z,11.83
2019-02-25T21:27:40.787Z,13.77
2019-02-25T21:31:07.197Z,13.63
2019-02-25T21:34:31.216Z,13.87
2019-02-25T21:37:55.795Z,14.33
2019-02-25T21:41:20.211Z,13.67
2019-02-25T21:44:46.106Z,14.90
2019-02-25T21:48:09.647Z,15.03
2019-02-25T21:51:35.142Z,14.93
2019-02-25T21:55:00.009Z,13.47
2019-02-25T21:58:25.454Z,13.83
2019-02-25T22:01:50.040Z,13.87
2019-02-25T22:05:14.187Z,12.03
2019-02-25T22:08:39.140Z,11.50
2019-02-25T22:12:02.713Z,13.37
2019-02-25T22:15:25.944Z,12.10
2019-02-25T22:18:50.370Z,12.80
2019-02-25T22:22:16.285Z,12.70
2019-02-25T22:25:39.800Z,11.57
2019-02-25T22:29:03.068Z,12.13
2019-02-25T22:32:26.656Z,14.47
2019-02-25T22:35:51.771Z,13.27
2019-02-25T22:39:15.342Z,13.50
2019-02-25T22:42:38.691Z,13.53
2019-02-25T22:46:02.488Z,13.37
2019-02-25T22:49:28.862Z,12.80
2019-02-25T22:52:58.249Z,13.63
2019-02-25T22:56:18.336Z,13.43
2019-02-25T22:59:42.859Z,13.87
2019-02-25T23:03:06.718Z,14.33
2019-02-25T23:06:30.028Z,14.43
2019-02-25T23:09:54.409Z,13.73
2019-02-25T23:13:20.003Z,15.53
2019-02-25T23:16:44.171Z,14.73
2019-02-25T23:20:09.394Z,14.37
2019-02-25T23:23:35.630Z,14.57
2019-02-25T23:26:59.659Z,18.67
2019-02-25T23:30:23.416Z,22.60
2019-02-25T23:33:48.981Z,24.83
2019-02-25T23:37:14.733Z,22.27
2019-02-25T23:40:38.306Z,20.03
2019-02-25T23:44:02.635Z,18.70
2019-02-25T23:47:28.806Z,17.83
2019-02-25T23:50:53.337Z,20.47
2019-02-25T23:54:18.491Z,19.73
2019-02-25T23:57:42.173Z,18.67
